sensor_id;sensor_type;location;lat;lon;timestamp;pressure;altitude;pressure_sealevel;temperature;humidity
45731;BME280;31440;48.584;13.460;2023-02-02T00:01:57;96808.84;;;1.63;100.00
45731;BME280;31440;48.584;13.460;2023-02-02T00:05:02;96848.16;;;1.68;100.00
45731;BME280;31440;48.584;13.460;2023-02-02T00:08:06;96799.44;;;1.68;100.00
45731;BME280;31440;48.584;13.460;2023-02-02T00:11:11;96794.34;;;1.64;100.00
45731;BME280;31440;48.584;13.460;2023-02-02T00:14:16;96805.44;;;1.64;100.00
45731;BME280;31440;48.584;13.460;2023-02-02T00:17:21;96799.44;;;1.73;100.00
45731;BME280;31440;48.584;13.460;2023-02-02T00:20:26;96793.38;;;1.86;100.00
45731;BME280;31440;48.584;13.460;2023-02-02T00:23:30;96774.59;;;1.82;100.00
45731;BME280;31440;48.584;13.460;2023-02-02T00:29:41;96788.31;;;1.72;100.00
45731;BME280;31440;48.584;13.460;2023-02-02T00:32:45;96792.63;;;1.61;100.00
45731;BME280;31440;48.584;13.460;2023-02-02T00:35:52;96780.69;;;1.60;100.00
45731;BME280;31440;48.584;13.460;2023-02-02T00:38:56;96778.09;;;1.69;100.00
45731;BME280;31440;48.584;13.460;2023-02-02T00:42:01;96784.91;;;1.70;100.00
45731;BME280;31440;48.584;13.460;2023-02-02T00:45:06;96789.19;;;1.68;100.00
45731;BME280;31440;48.584;13.460;2023-02-02T00:48:19;96770.28;;;1.86;100.00
45731;BME280;31440;48.584;13.460;2023-02-02T00:51:24;96769.53;;;1.72;100.00
45731;BME280;31440;48.584;13.460;2023-02-02T00:54:29;96772.03;;;1.82;100.00
45731;BME280;31440;48.584;13.460;2023-02-02T00:57:33;96834.47;;;1.69;100.00
45731;BME280;31440;48.584;13.460;2023-02-02T01:00:38;96782.28;;;1.78;100.00
45731;BME280;31440;48.584;13.460;2023-02-02T01:06:49;96766.00;;;1.88;100.00
45731;BME280;31440;48.584;13.460;2023-02-02T01:09:53;96758.34;;;1.83;100.00
45731;BME280;31440;48.584;13.460;2023-02-02T01:12:58;96777.16;;;1.84;100.00
45731;BME280;31440;48.584;13.460;2023-02-02T01:16:03;96774.47;;;2.04;100.00
45731;BME280;31440;48.584;13.460;2023-02-02T01:19:08;96796.72;;;1.99;100.00
45731;BME280;31440;48.584;13.460;2023-02-02T01:22:12;96785.59;;;2.01;100.00
45731;BME280;31440;48.584;13.460;2023-02-02T01:25:17;96804.38;;;2.06;100.00
45731;BME280;31440;48.584;13.460;2023-02-02T01:28:22;96797.53;;;2.04;100.00
45731;BME280;31440;48.584;13.460;2023-02-02T01:31:27;96783.03;;;2.00;100.00
45731;BME280;31440;48.584;13.460;2023-02-02T01:37:38;96815.50;;;2.01;100.00
45731;BME280;31440;48.584;13.460;2023-02-02T01:40:47;96836.84;;;2.07;100.00
45731;BME280;31440;48.584;13.460;2023-02-02T01:43:55;96851.56;;;1.73;100.00
45731;BME280;31440;48.584;13.460;2023-02-02T01:47:00;96873.75;;;1.76;100.00
45731;BME280;31440;48.584;13.460;2023-02-02T01:50:09;96876.44;;;1.33;100.00
45731;BME280;31440;48.584;13.460;2023-02-02T01:53:16;96892.59;;;0.06;100.00
45731;BME280;31440;48.584;13.460;2023-02-02T01:56:27;96902.66;;;-0.34;100.00
45731;BME280;31440;48.584;13.460;2023-02-02T01:59:33;96909.41;;;-0.48;100.00
45731;BME280;31440;48.584;13.460;2023-02-02T02:02:39;96918.75;;;-0.50;100.00
45731;BME280;31440;48.584;13.460;2023-02-02T02:06:06;96911.81;;;-0.77;100.00
45731;BME280;31440;48.584;13.460;2023-02-02T02:09:13;96906.50;;;-1.01;100.00
45731;BME280;31440;48.584;13.460;2023-02-02T02:12:17;96926.34;;;-0.64;100.00
45731;BME280;31440;48.584;13.460;2023-02-02T02:15:22;96919.47;;;-0.75;100.00
45731;BME280;31440;48.584;13.460;2023-02-02T02:19:14;96924.53;;;-0.80;100.00
45731;BME280;31440;48.584;13.460;2023-02-02T02:22:39;96934.44;;;-1.21;100.00
45731;BME280;31440;48.584;13.460;2023-02-02T02:26:22;96950.84;;;-0.90;100.00
45731;BME280;31440;48.584;13.460;2023-02-02T02:33:26;96950.84;;;-0.93;100.00
45731;BME280;31440;48.584;13.460;2023-02-02T02:36:47;96951.50;;;-1.15;100.00
45731;BME280;31440;48.584;13.460;2023-02-02T02:39:54;96944.88;;;-0.93;100.00
45731;BME280;31440;48.584;13.460;2023-02-02T02:43:06;96950.84;;;-0.87;100.00
45731;BME280;31440;48.584;13.460;2023-02-02T02:46:13;96941.47;;;-0.91;100.00
45731;BME280;31440;48.584;13.460;2023-02-02T02:49:18;96936.34;;;-0.96;100.00
45731;BME280;31440;48.584;13.460;2023-02-02T02:52:23;96937.97;;;-1.04;100.00
45731;BME280;31440;48.584;13.460;2023-02-02T02:55:38;96930.41;;;-0.90;100.00
45731;BME280;31440;48.584;13.460;2023-02-02T02:58:49;96936.16;;;-1.17;100.00
45731;BME280;31440;48.584;13.460;2023-02-02T03:02:15;96936.31;;;-1.89;100.00
45731;BME280;31440;48.584;13.460;2023-02-02T03:11:55;96929.53;;;-1.87;100.00
45731;BME280;31440;48.584;13.460;2023-02-02T03:15:04;96934.00;;;-1.67;100.00
45731;BME280;31440;48.584;13.460;2023-02-02T03:18:10;96942.88;;;-1.26;100.00
45731;BME280;31440;48.584;13.460;2023-02-02T03:21:16;96943.25;;;-1.76;100.00
45731;BME280;31440;48.584;13.460;2023-02-02T03:24:23;96924.31;;;-1.96;100.00
45731;BME280;31440;48.584;13.460;2023-02-02T03:27:28;96953.81;;;-1.40;100.00
45731;BME280;31440;48.584;13.460;2023-02-02T03:30:33;96955.28;;;-1.64;100.00
45731;BME280;31440;48.584;13.460;2023-02-02T03:33:38;96949.81;;;-1.96;100.00
45731;BME280;31440;48.584;13.460;2023-02-02T03:36:42;96958.59;;;-1.72;100.00
45731;BME280;31440;48.584;13.460;2023-02-02T03:39:47;96962.75;;;-1.78;100.00
45731;BME280;31440;48.584;13.460;2023-02-02T03:42:51;96963.50;;;-1.88;100.00
45731;BME280;31440;48.584;13.460;2023-02-02T03:45:58;96964.28;;;-1.94;100.00
45731;BME280;31440;48.584;13.460;2023-02-02T03:49:03;96964.34;;;-1.89;100.00
45731;BME280;31440;48.584;13.460;2023-02-02T03:52:08;96960.19;;;-1.83;100.00
45731;BME280;31440;48.584;13.460;2023-02-02T03:55:12;96962.09;;;-1.60;100.00
45731;BME280;31440;48.584;13.460;2023-02-02T03:58:17;96962.06;;;-1.63;100.00
45731;BME280;31440;48.584;13.460;2023-02-02T04:01:29;96940.47;;;-1.96;100.00
45731;BME280;31440;48.584;13.460;2023-02-02T04:04:33;96977.16;;;-1.80;100.00
45731;BME280;31440;48.584;13.460;2023-02-02T04:07:38;96974.69;;;-1.76;100.00
45731;BME280;31440;48.584;13.460;2023-02-02T04:10:43;96979.88;;;-1.70;100.00
45731;BME280;31440;48.584;13.460;2023-02-02T04:13:49;96947.19;;;-2.04;100.00
45731;BME280;31440;48.584;13.460;2023-02-02T04:16:54;96999.16;;;-1.90;100.00
45731;BME280;31440;48.584;13.460;2023-02-02T04:19:58;96994.31;;;-1.70;100.00
45731;BME280;31440;48.584;13.460;2023-02-02T04:23:03;97002.47;;;-1.97;100.00
45731;BME280;31440;48.584;13.460;2023-02-02T04:26:08;97004.34;;;-1.84;100.00
45731;BME280;31440;48.584;13.460;2023-02-02T04:29:12;97020.38;;;-1.91;100.00
45731;BME280;31440;48.584;13.460;2023-02-02T04:32:17;97022.81;;;-1.98;100.00
45731;BME280;31440;48.584;13.460;2023-02-02T04:35:22;97025.69;;;-1.74;100.00
45731;BME280;31440;48.584;13.460;2023-02-02T04:38:27;97013.47;;;-2.01;100.00
45731;BME280;31440;48.584;13.460;2023-02-02T04:44:37;97016.00;;;-2.00;100.00
45731;BME280;31440;48.584;13.460;2023-02-02T04:47:43;97017.28;;;-1.69;100.00
45731;BME280;31440;48.584;13.460;2023-02-02T04:50:47;97017.72;;;-2.02;100.00
45731;BME280;31440;48.584;13.460;2023-02-02T04:53:52;97012.03;;;-1.78;100.00
45731;BME280;31440;48.584;13.460;2023-02-02T04:56:56;97021.97;;;-1.99;100.00
45731;BME280;31440;48.584;13.460;2023-02-02T05:00:01;97025.25;;;-2.09;100.00
45731;BME280;31440;48.584;13.460;2023-02-02T05:03:06;97025.47;;;-1.92;100.00
45731;BME280;31440;48.584;13.460;2023-02-02T05:06:11;97024.59;;;-1.94;100.00
45731;BME280;31440;48.584;13.460;2023-02-02T05:09:19;97026.44;;;-1.83;100.00
45731;BME280;31440;48.584;13.460;2023-02-02T05:12:23;97035.75;;;-1.86;100.00
45731;BME280;31440;48.584;13.460;2023-02-02T05:15:28;97023.06;;;-1.80;100.00
45731;BME280;31440;48.584;13.460;2023-02-02T05:18:32;97023.81;;;-1.89;100.00
45731;BME280;31440;48.584;13.460;2023-02-02T05:21:37;97034.16;;;-1.77;100.00
45731;BME280;31440;48.584;13.460;2023-02-02T05:27:48;97040.78;;;-1.91;100.00
45731;BME280;31440;48.584;13.460;2023-02-02T05:30:52;97036.72;;;-1.75;100.00
45731;BME280;31440;48.584;13.460;2023-02-02T05:33:57;97056.19;;;-1.80;100.00
45731;BME280;31440;48.584;13.460;2023-02-02T05:37:02;97050.47;;;-1.62;100.00
45731;BME280;31440;48.584;13.460;2023-02-02T05:40:07;97035.97;;;-1.68;100.00
45731;BME280;31440;48.584;13.460;2023-02-02T05:43:12;97042.50;;;-1.88;100.00
45731;BME280;31440;48.584;13.460;2023-02-02T05:46:16;97038.41;;;-1.76;100.00
45731;BME280;31440;48.584;13.460;2023-02-02T05:49:21;97044.16;;;-1.92;100.00
45731;BME280;31440;48.584;13.460;2023-02-02T05:52:33;97047.00;;;-1.69;100.00
45731;BME280;31440;48.584;13.460;2023-02-02T05:55:38;97027.88;;;-2.03;100.00
45731;BME280;31440;48.584;13.460;2023-02-02T05:58:43;97054.59;;;-1.74;100.00
45731;BME280;31440;48.584;13.460;2023-02-02T06:01:50;97077.66;;;-1.66;100.00
45731;BME280;31440;48.584;13.460;2023-02-02T06:04:55;97077.44;;;-1.83;100.00
45731;BME280;31440;48.584;13.460;2023-02-02T06:07:59;97092.59;;;-1.92;100.00
45731;BME280;31440;48.584;13.460;2023-02-02T06:11:12;97090.25;;;-1.75;100.00
45731;BME280;31440;48.584;13.460;2023-02-02T06:14:16;97091.03;;;-1.82;100.00
45731;BME280;31440;48.584;13.460;2023-02-02T06:17:21;97110.41;;;-1.92;100.00
45731;BME280;31440;48.584;13.460;2023-02-02T06:20:26;97115.56;;;-1.89;100.00
45731;BME280;31440;48.584;13.460;2023-02-02T06:23:32;97129.34;;;-1.76;100.00
45731;BME280;31440;48.584;13.460;2023-02-02T06:26:37;97114.75;;;-1.88;100.00
45731;BME280;31440;48.584;13.460;2023-02-02T06:29:42;97099.22;;;-2.05;100.00
45731;BME280;31440;48.584;13.460;2023-02-02T06:32:46;97110.06;;;-2.16;100.00
45731;BME280;31440;48.584;13.460;2023-02-02T06:35:52;97073.47;;;-2.23;100.00
45731;BME280;31440;48.584;13.460;2023-02-02T06:38:57;97111.00;;;-2.10;100.00
45731;BME280;31440;48.584;13.460;2023-02-02T06:42:01;97118.03;;;-1.93;100.00
45731;BME280;31440;48.584;13.460;2023-02-02T06:45:25;97118.78;;;-2.02;100.00
45731;BME280;31440;48.584;13.460;2023-02-02T06:48:30;97116.44;;;-1.87;100.00
45731;BME280;31440;48.584;13.460;2023-02-02T06:54:41;97126.75;;;-1.78;100.00
45731;BME280;31440;48.584;13.460;2023-02-02T06:57:45;97131.00;;;-1.78;100.00
45731;BME280;31440;48.584;13.460;2023-02-02T07:00:50;97140.56;;;-1.65;100.00
45731;BME280;31440;48.584;13.460;2023-02-02T07:07:00;97144.69;;;-1.73;100.00
45731;BME280;31440;48.584;13.460;2023-02-02T07:10:05;97141.94;;;-1.87;100.00
45731;BME280;31440;48.584;13.460;2023-02-02T07:13:10;97136.78;;;-1.90;100.00
45731;BME280;31440;48.584;13.460;2023-02-02T07:16:16;97144.31;;;-1.97;100.00
45731;BME280;31440;48.584;13.460;2023-02-02T07:19:21;97149.19;;;-2.13;100.00
45731;BME280;31440;48.584;13.460;2023-02-02T07:22:25;97148.31;;;-2.13;100.00
45731;BME280;31440;48.584;13.460;2023-02-02T07:25:30;97147.97;;;-1.79;100.00
45731;BME280;31440;48.584;13.460;2023-02-02T07:28:35;97128.72;;;-2.19;100.00
45731;BME280;31440;48.584;13.460;2023-02-02T07:31:40;97164.56;;;-2.07;100.00
45731;BME280;31440;48.584;13.460;2023-02-02T07:34:44;97156.19;;;-2.01;100.00
45731;BME280;31440;48.584;13.460;2023-02-02T07:37:55;97164.06;;;-1.84;100.00
45731;BME280;31440;48.584;13.460;2023-02-02T07:41:00;97176.66;;;-1.93;100.00
45731;BME280;31440;48.584;13.460;2023-02-02T07:44:05;97159.66;;;-1.94;100.00
45731;BME280;31440;48.584;13.460;2023-02-02T07:47:10;97150.44;;;-1.86;100.00
45731;BME280;31440;48.584;13.460;2023-02-02T07:50:15;97155.97;;;-2.13;100.00
45731;BME280;31440;48.584;13.460;2023-02-02T07:53:20;97162.13;;;-1.99;100.00
45731;BME280;31440;48.584;13.460;2023-02-02T07:56:26;97164.63;;;-2.04;100.00
45731;BME280;31440;48.584;13.460;2023-02-02T07:59:31;97172.31;;;-2.01;100.00
45731;BME280;31440;48.584;13.460;2023-02-02T08:02:36;97156.97;;;-2.05;100.00
45731;BME280;31440;48.584;13.460;2023-02-02T08:05:40;97174.19;;;-1.89;100.00
45731;BME280;31440;48.584;13.460;2023-02-02T08:08:46;97173.19;;;-1.97;100.00
45731;BME280;31440;48.584;13.460;2023-02-02T08:11:51;97184.94;;;-2.08;100.00
45731;BME280;31440;48.584;13.460;2023-02-02T08:14:55;97170.88;;;-1.83;100.00
45731;BME280;31440;48.584;13.460;2023-02-02T08:18:01;97164.13;;;-1.78;100.00
45731;BME280;31440;48.584;13.460;2023-02-02T08:21:08;97171.19;;;-2.16;100.00
45731;BME280;31440;48.584;13.460;2023-02-02T08:24:12;97184.34;;;-1.92;100.00
45731;BME280;31440;48.584;13.460;2023-02-02T08:27:17;97172.41;;;-1.93;100.00
45731;BME280;31440;48.584;13.460;2023-02-02T08:30:21;97175.56;;;-2.09;100.00
45731;BME280;31440;48.584;13.460;2023-02-02T08:33:26;97171.25;;;-2.13;100.00
45731;BME280;31440;48.584;13.460;2023-02-02T08:36:31;97163.78;;;-2.03;100.00
45731;BME280;31440;48.584;13.460;2023-02-02T08:39:38;97173.25;;;-1.94;100.00
45731;BME280;31440;48.584;13.460;2023-02-02T08:42:43;97171.66;;;-1.89;100.00
45731;BME280;31440;48.584;13.460;2023-02-02T08:45:49;97178.94;;;-2.12;100.00
45731;BME280;31440;48.584;13.460;2023-02-02T08:49:09;97179.75;;;-2.13;100.00
45731;BME280;31440;48.584;13.460;2023-02-02T08:52:14;97189.59;;;-1.83;100.00
45731;BME280;31440;48.584;13.460;2023-02-02T08:55:19;97189.63;;;-1.78;100.00
45731;BME280;31440;48.584;13.460;2023-02-02T08:58:23;97187.16;;;-1.74;100.00
45731;BME280;31440;48.584;13.460;2023-02-02T09:01:30;97207.28;;;-1.92;100.00
45731;BME280;31440;48.584;13.460;2023-02-02T09:04:34;97202.31;;;-1.84;100.00
45731;BME280;31440;48.584;13.460;2023-02-02T09:07:39;97197.09;;;-1.90;100.00
45731;BME280;31440;48.584;13.460;2023-02-02T09:10:44;97175.25;;;-1.75;100.00
45731;BME280;31440;48.584;13.460;2023-02-02T09:13:53;97212.69;;;-1.71;100.00
45731;BME280;31440;48.584;13.460;2023-02-02T09:16:58;97208.94;;;-1.94;100.00
45731;BME280;31440;48.584;13.460;2023-02-02T09:20:03;97215.06;;;-1.83;100.00
45731;BME280;31440;48.584;13.460;2023-02-02T09:23:08;97219.84;;;-2.03;100.00
45731;BME280;31440;48.584;13.460;2023-02-02T09:26:27;97205.50;;;-1.96;100.00
45731;BME280;31440;48.584;13.460;2023-02-02T09:29:32;97212.38;;;-1.92;100.00
45731;BME280;31440;48.584;13.460;2023-02-02T09:32:36;97219.19;;;-1.91;100.00
45731;BME280;31440;48.584;13.460;2023-02-02T09:35:41;97204.84;;;-1.84;100.00
45731;BME280;31440;48.584;13.460;2023-02-02T09:38:46;97228.38;;;-2.01;100.00
45731;BME280;31440;48.584;13.460;2023-02-02T09:42:10;97231.00;;;-1.94;100.00
45731;BME280;31440;48.584;13.460;2023-02-02T09:45:38;97219.44;;;-1.74;100.00
45731;BME280;31440;48.584;13.460;2023-02-02T09:55:14;97236.91;;;-1.41;100.00
45731;BME280;31440;48.584;13.460;2023-02-02T10:01:36;97229.06;;;-0.94;100.00
45731;BME280;31440;48.584;13.460;2023-02-02T10:04:44;97239.09;;;-1.07;100.00
45731;BME280;31440;48.584;13.460;2023-02-02T10:07:56;97228.00;;;-1.09;100.00
45731;BME280;31440;48.584;13.460;2023-02-02T10:14:53;97231.63;;;-0.90;100.00
45731;BME280;31440;48.584;13.460;2023-02-02T10:21:42;97246.19;;;-0.04;100.00
45731;BME280;31440;48.584;13.460;2023-02-02T10:24:48;97246.03;;;-0.21;100.00
45731;BME280;31440;48.584;13.460;2023-02-02T10:28:05;97235.94;;;-0.09;100.00
45731;BME280;31440;48.584;13.460;2023-02-02T10:31:48;97253.75;;;-0.13;100.00
45731;BME280;31440;48.584;13.460;2023-02-02T10:41:32;97240.91;;;-0.19;100.00
45731;BME280;31440;48.584;13.460;2023-02-02T10:44:58;97232.22;;;-0.40;100.00
45731;BME280;31440;48.584;13.460;2023-02-02T10:48:12;97236.50;;;-0.36;100.00
45731;BME280;31440;48.584;13.460;2023-02-02T10:51:22;97217.34;;;-0.77;100.00
45731;BME280;31440;48.584;13.460;2023-02-02T10:54:39;97244.28;;;-1.01;100.00
45731;BME280;31440;48.584;13.460;2023-02-02T11:01:07;97237.78;;;-0.76;100.00
45731;BME280;31440;48.584;13.460;2023-02-02T11:07:39;97232.31;;;-1.05;100.00
45731;BME280;31440;48.584;13.460;2023-02-02T11:10:45;97231.28;;;-1.19;100.00
45731;BME280;31440;48.584;13.460;2023-02-02T11:14:12;97209.44;;;-1.60;100.00
45731;BME280;31440;48.584;13.460;2023-02-02T11:17:23;97227.38;;;-0.89;100.00
45731;BME280;31440;48.584;13.460;2023-02-02T11:20:34;97227.38;;;-0.91;100.00
45731;BME280;31440;48.584;13.460;2023-02-02T11:26:59;97222.25;;;-0.92;100.00
45731;BME280;31440;48.584;13.460;2023-02-02T11:30:25;97230.78;;;-0.90;100.00
45731;BME280;31440;48.584;13.460;2023-02-02T11:33:33;97222.34;;;-0.85;100.00
45731;BME280;31440;48.584;13.460;2023-02-02T11:36:37;97225.88;;;-0.75;100.00
45731;BME280;31440;48.584;13.460;2023-02-02T11:39:43;97172.69;;;-1.13;100.00
45731;BME280;31440;48.584;13.460;2023-02-02T11:42:49;97223.94;;;-0.96;100.00
45731;BME280;31440;48.584;13.460;2023-02-02T11:46:00;97220.72;;;-0.80;100.00
45731;BME280;31440;48.584;13.460;2023-02-02T11:49:15;97222.72;;;-0.50;100.00
45731;BME280;31440;48.584;13.460;2023-02-02T11:52:23;97225.78;;;-0.83;100.00
45731;BME280;31440;48.584;13.460;2023-02-02T11:55:30;97225.19;;;-0.61;100.00
45731;BME280;31440;48.584;13.460;2023-02-02T11:58:49;97224.38;;;-0.58;100.00
45731;BME280;31440;48.584;13.460;2023-02-02T12:08:25;97219.16;;;-0.67;100.00
45731;BME280;31440;48.584;13.460;2023-02-02T12:25:22;97213.31;;;-1.26;100.00
45731;BME280;31440;48.584;13.460;2023-02-02T12:39:03;97197.22;;;-1.21;100.00
45731;BME280;31440;48.584;13.460;2023-02-02T12:46:26;97215.53;;;-1.51;100.00
45731;BME280;31440;48.584;13.460;2023-02-02T13:10:14;97225.06;;;-1.39;100.00
45731;BME280;31440;48.584;13.460;2023-02-02T13:16:28;97226.00;;;-1.33;100.00
45731;BME280;31440;48.584;13.460;2023-02-02T13:19:37;97203.06;;;-1.28;100.00
45731;BME280;31440;48.584;13.460;2023-02-02T13:22:44;97219.41;;;-1.17;100.00
45731;BME280;31440;48.584;13.460;2023-02-02T13:25:57;97233.81;;;-1.78;100.00
45731;BME280;31440;48.584;13.460;2023-02-02T13:29:16;97234.31;;;-1.44;100.00
45731;BME280;31440;48.584;13.460;2023-02-02T13:32:26;97228.47;;;-1.37;100.00
45731;BME280;31440;48.584;13.460;2023-02-02T13:35:41;97231.19;;;-1.25;100.00
45731;BME280;31440;48.584;13.460;2023-02-02T13:38:48;97207.09;;;-1.47;100.00
45731;BME280;31440;48.584;13.460;2023-02-02T13:41:54;97233.44;;;-1.46;100.00
45731;BME280;31440;48.584;13.460;2023-02-02T13:45:05;97241.88;;;-1.52;100.00
45731;BME280;31440;48.584;13.460;2023-02-02T13:52:07;97245.84;;;-1.10;100.00
45731;BME280;31440;48.584;13.460;2023-02-02T13:58:45;97250.19;;;-1.03;100.00
45731;BME280;31440;48.584;13.460;2023-02-02T14:01:57;97248.19;;;-0.61;100.00
45731;BME280;31440;48.584;13.460;2023-02-02T14:05:04;97260.75;;;-1.41;100.00
45731;BME280;31440;48.584;13.460;2023-02-02T14:08:23;97262.31;;;-0.87;100.00
45731;BME280;31440;48.584;13.460;2023-02-02T14:11:37;97260.31;;;-1.09;100.00
45731;BME280;31440;48.584;13.460;2023-02-02T14:14:45;97263.19;;;-0.86;100.00
45731;BME280;31440;48.584;13.460;2023-02-02T14:17:52;97254.94;;;-1.31;100.00
45731;BME280;31440;48.584;13.460;2023-02-02T14:20:57;97267.78;;;-1.23;100.00
45731;BME280;31440;48.584;13.460;2023-02-02T14:30:34;97276.81;;;-0.84;100.00
45731;BME280;31440;48.584;13.460;2023-02-02T14:33:43;97256.56;;;-0.69;100.00
45731;BME280;31440;48.584;13.460;2023-02-02T14:43:54;97302.78;;;-0.49;100.00
45731;BME280;31440;48.584;13.460;2023-02-02T14:46:59;97296.72;;;-0.59;100.00
45731;BME280;31440;48.584;13.460;2023-02-02T14:50:12;97304.16;;;-0.74;100.00
45731;BME280;31440;48.584;13.460;2023-02-02T14:53:27;97311.91;;;-0.70;100.00
45731;BME280;31440;48.584;13.460;2023-02-02T14:56:49;97313.34;;;-0.88;100.00
45731;BME280;31440;48.584;13.460;2023-02-02T14:59:57;97316.94;;;-0.76;100.00
45731;BME280;31440;48.584;13.460;2023-02-02T15:03:44;97316.16;;;-0.69;100.00
45731;BME280;31440;48.584;13.460;2023-02-02T15:06:50;97324.13;;;-1.09;100.00
45731;BME280;31440;48.584;13.460;2023-02-02T15:13:06;97325.91;;;-1.04;100.00
45731;BME280;31440;48.584;13.460;2023-02-02T15:16:22;97340.19;;;-1.18;100.00
45731;BME280;31440;48.584;13.460;2023-02-02T15:19:39;97344.81;;;-0.89;100.00
45731;BME280;31440;48.584;13.460;2023-02-02T15:26:14;97347.91;;;-1.10;100.00
45731;BME280;31440;48.584;13.460;2023-02-02T15:29:48;97352.81;;;-1.24;100.00
45731;BME280;31440;48.584;13.460;2023-02-02T15:32:52;97354.47;;;-1.29;100.00
45731;BME280;31440;48.584;13.460;2023-02-02T15:35:58;97356.50;;;-1.05;100.00
45731;BME280;31440;48.584;13.460;2023-02-02T15:39:19;97369.44;;;-1.50;100.00
45731;BME280;31440;48.584;13.460;2023-02-02T15:42:40;97363.91;;;-1.22;100.00
45731;BME280;31440;48.584;13.460;2023-02-02T15:46:04;97373.00;;;-1.39;100.00
45731;BME280;31440;48.584;13.460;2023-02-02T15:49:30;97371.63;;;-1.70;100.00
45731;BME280;31440;48.584;13.460;2023-02-02T15:52:44;97349.22;;;-1.88;100.00
45731;BME280;31440;48.584;13.460;2023-02-02T15:58:57;97382.94;;;-1.56;100.00
45731;BME280;31440;48.584;13.460;2023-02-02T16:08:30;97405.38;;;-1.37;100.00
45731;BME280;31440;48.584;13.460;2023-02-02T16:11:40;97413.69;;;-1.45;100.00
45731;BME280;31440;48.584;13.460;2023-02-02T16:14:48;97415.41;;;-1.47;100.00
45731;BME280;31440;48.584;13.460;2023-02-02T16:17:58;97421.34;;;-1.47;100.00
45731;BME280;31440;48.584;13.460;2023-02-02T16:21:10;97401.97;;;-1.36;100.00
45731;BME280;31440;48.584;13.460;2023-02-02T16:24:21;97436.75;;;-1.41;100.00
45731;BME280;31440;48.584;13.460;2023-02-02T16:27:28;97439.84;;;-1.58;100.00
45731;BME280;31440;48.584;13.460;2023-02-02T16:30:36;97442.09;;;-1.28;100.00
45731;BME280;31440;48.584;13.460;2023-02-02T16:33:42;97452.09;;;-1.39;100.00
45731;BME280;31440;48.584;13.460;2023-02-02T16:37:45;97451.97;;;-1.45;100.00
45731;BME280;31440;48.584;13.460;2023-02-02T16:40:31;97462.28;;;-1.39;100.00
45731;BME280;31440;48.584;13.460;2023-02-02T16:43:37;97467.78;;;-1.18;100.00
45731;BME280;31440;48.584;13.460;2023-02-02T16:46:47;97468.88;;;-1.02;100.00
45731;BME280;31440;48.584;13.460;2023-02-02T16:53:22;97486.31;;;-1.26;100.00
45731;BME280;31440;48.584;13.460;2023-02-02T16:56:40;97493.22;;;-1.21;100.00
45731;BME280;31440;48.584;13.460;2023-02-02T16:59:50;97499.94;;;-1.26;100.00
45731;BME280;31440;48.584;13.460;2023-02-02T17:02:59;97509.56;;;-1.10;100.00
45731;BME280;31440;48.584;13.460;2023-02-02T17:06:05;97517.72;;;-1.31;100.00
45731;BME280;31440;48.584;13.460;2023-02-02T17:09:26;97527.66;;;-1.44;100.00
45731;BME280;31440;48.584;13.460;2023-02-02T17:12:31;97526.38;;;-1.22;100.00
45731;BME280;31440;48.584;13.460;2023-02-02T17:15:38;97537.31;;;-1.28;100.00
45731;BME280;31440;48.584;13.460;2023-02-02T17:18:43;97542.41;;;-1.29;100.00
45731;BME280;31440;48.584;13.460;2023-02-02T17:21:49;97501.00;;;-1.15;100.00
45731;BME280;31440;48.584;13.460;2023-02-02T17:24:54;97548.06;;;-1.44;100.00
45731;BME280;31440;48.584;13.460;2023-02-02T17:27:59;97552.91;;;-1.14;100.00
45731;BME280;31440;48.584;13.460;2023-02-02T17:31:08;97557.69;;;-1.31;100.00
45731;BME280;31440;48.584;13.460;2023-02-02T17:34:14;97557.44;;;-1.43;100.00
45731;BME280;31440;48.584;13.460;2023-02-02T17:37:18;97568.09;;;-2.05;100.00
45731;BME280;31440;48.584;13.460;2023-02-02T17:40:23;97565.69;;;-1.97;100.00
45731;BME280;31440;48.584;13.460;2023-02-02T17:43:29;97566.16;;;-2.15;100.00
45731;BME280;31440;48.584;13.460;2023-02-02T17:46:34;97583.03;;;-1.82;100.00
45731;BME280;31440;48.584;13.460;2023-02-02T17:49:43;97584.09;;;-1.71;100.00
45731;BME280;31440;48.584;13.460;2023-02-02T17:52:48;97593.50;;;-1.69;100.00
45731;BME280;31440;48.584;13.460;2023-02-02T17:55:53;97595.84;;;-1.78;100.00
45731;BME280;31440;48.584;13.460;2023-02-02T17:58:57;97599.53;;;-1.65;100.00
45731;BME280;31440;48.584;13.460;2023-02-02T18:02:02;97600.03;;;-1.80;100.00
45731;BME280;31440;48.584;13.460;2023-02-02T18:05:07;97603.84;;;-2.02;100.00
45731;BME280;31440;48.584;13.460;2023-02-02T18:08:12;97602.41;;;-1.89;100.00
45731;BME280;31440;48.584;13.460;2023-02-02T18:11:17;97618.31;;;-1.99;100.00
45731;BME280;31440;48.584;13.460;2023-02-02T18:14:22;97616.63;;;-2.00;100.00
45731;BME280;31440;48.584;13.460;2023-02-02T18:17:26;97613.03;;;-1.69;100.00
45731;BME280;31440;48.584;13.460;2023-02-02T18:20:31;97619.06;;;-1.64;100.00
45731;BME280;31440;48.584;13.460;2023-02-02T18:23:36;97635.78;;;-1.78;100.00
45731;BME280;31440;48.584;13.460;2023-02-02T18:29:47;97627.06;;;-1.88;100.00
45731;BME280;31440;48.584;13.460;2023-02-02T18:32:51;97638.28;;;-1.80;100.00
45731;BME280;31440;48.584;13.460;2023-02-02T18:35:56;97650.13;;;-1.82;100.00
45731;BME280;31440;48.584;13.460;2023-02-02T18:39:02;97604.59;;;-2.06;100.00
45731;BME280;31440;48.584;13.460;2023-02-02T18:42:07;97646.91;;;-1.75;100.00
45731;BME280;31440;48.584;13.460;2023-02-02T18:45:12;97646.47;;;-1.94;100.00
45731;BME280;31440;48.584;13.460;2023-02-02T18:48:16;97649.63;;;-2.05;100.00
45731;BME280;31440;48.584;13.460;2023-02-02T18:51:23;97659.69;;;-2.11;100.00
45731;BME280;31440;48.584;13.460;2023-02-02T18:54:27;97658.09;;;-2.06;100.00
45731;BME280;31440;48.584;13.460;2023-02-02T18:57:32;97666.25;;;-1.84;100.00
45731;BME280;31440;48.584;13.460;2023-02-02T19:00:37;97669.41;;;-1.94;100.00